Αρχική σελίδα
METAR-TAF:

METAR-TAF

Αεροδρόμια :

Λαμπεντούζα, Ιταλία

γεωγραφικό πλάτος: 35-30N, γεωγραφικό μήκος: 012-36E, υψόμετρο: 16 μ

Παρών καιρός

Η αναφορά έγινε 37 λεπτά πριν, στις 08:50 UTC
Άνεμος 8 kt από Ν
Θερμοκρασία 29°C
Υγρασία 66%
Πίεση 1020 hPa
Ορατότητα 10 χλμ και άνω
Λίγα νέφη σε ύψος 2000 πόδια

METAR: LICD 190850Z 19008KT 9999 FEW020 29/22 Q1020

Χρόνος: 11:27 (09:27 UTC)

Πρόγνωση Καιρού

Η αναφορά έγινε 4 ώρες και 27 λεπτά πριν, στις 05:00 UTC
Η πρόγνωση ισχύει από τις 19 στις 06 UTC έως τις 20 στις 06 UTC
Άνεμος 13 kt από Ν/ΝΔ
Ορατότητα 10 χλμ και άνω
Διάσπαρτα νέφη σε ύψος 3000 πόδια
Καθιστάμενος
από 19 στις 18 UTC έως τις 19 στις 20 UTC
Άνεμος 5 kt από μεταβλητές κατευθύνσεις

TAF: LICD 190500Z 1906/2006 20013KT 9999 SCT030 BECMG 1918/1920 VRB05KT

Μετεωρολογικές αναφορές και προγνώσεις για περισσότερα από 4000 αεροδρόμια (δελτία METAR και TAF).

Οι διαθέσιμοι σταθμοί απεικονίζονται στο χάρτη με κίτρινες και κόκκινες κουκκίδες.

Μετακινήστε το ποντίκι πάνω από τις κουκκίδες για να δείτε το όνομα του σταθμού.

Στη συνέχεια, κάντε κλικ για να δείτε τις μετεωρολογικές αναφορές και τις προγνώσεις καιρού.

Για να αλλάξετε το χάρτη: κάντε κλικ στα πράσινα κουμπιά με τον μαύρο σταυρό για να ζουμάρετε, στο πράσινο κουμπί με την παύλα για να αφαιρέσετε το ζουμ ή στα πράσινα βέλη για να αντιπαραβάλλετε χάρτες.


METAR-TAF: